METAR AND TAF INFORMATION
METAR FOR UAAH
ADDS - METARS form results

(1213 UTC 17 June 2019)
Data provider http://aviationweather.gov/metar/data/
 
METAR text: UAAH 171130Z 21005MPS 170V240 CAVOK 25/04 Q1007 NOSIG RMK QFE717/0956
Conditions at: UAAH (BALKHASH , KZ) observed 1130 UTC 17 June 2019
Temperature: 25.0°C (77°F)
Dewpoint: 4.0°C (39°F) [RH = 26%]
Pressure (altimeter): 29.73 inches Hg (1007.0 mb)
Winds: from the SSW (210 degrees) at 12 MPH (10 knots; 5.1 m/s)
Visibility: 6 or more miles (10+ km)
Ceiling: ceiling and visibility are OK
Clouds: unknown
Weather: no significant weather observed at this time

Forecast for: UAAH (BALKHASH , KZ)
Text: TAF UAAH 171100Z 1712/1721 22005MPS 9999 SCT040 SCT100
Forecast period: 1200 to 2100 UTC 17 June 2019
Forecast type: FROM: standard forecast or significant change
Winds: from the SW (220 degrees) at 12 MPH (10 knots; 5.1 m/s)
Visibility: 6 or more miles 10+ km)
Ceiling: at least 12,000 feet AGL
Clouds: scattered clouds at 4000 feet AGL
scattered clouds at 10000 feet AGL
Weather: no significant weather forecast for this period

 AIRPORT MAP

 RUNWAY INFORMATION

 AIRPORT FREQUENCIES
Type TWR Name TWR Frequency 128 MHZ

 AIRPORT NEAR NAVIGATION AIDS
Type NDB Name Balkhash Frequency 456 KHZ
Type VOR-DME Name Balkhash Frequency 113700 KHZ



2018 Air Astana Virtual Airline